Time;durP1;ratioP1;P1;durP2;ratioP2;P2;SDS_P1;SDS_P2;PMS_P1;PMS_P2;Temp;Humidity;BMP_temperature;BMP_pressure;BME280_temperature;BME280_humidity;BME280_pressure;Samples;Min_cycle;Max_cycle;Signal;HPM_P1;HPM_P2
2024/01/27 00:00:55;;;;;;;3.13;1.90;;;;;;;1.47;100.00;103398.94;4978778;28;20025;-94
2024/01/27 00:03:20;;;;;;;3.17;1.88;;;;;;;1.34;100.00;103381.03;4977953;28;20117;-93
2024/01/27 00:06:09;;;;;;;2.03;1.50;;;;;;;1.47;100.00;103403.16;4977736;28;20196;-93
2024/01/27 00:08:52;;;;;;;2.40;1.77;;;;;;;1.28;100.00;103380.63;4977563;28;20035;-93
2024/01/27 00:11:18;;;;;;;3.17;1.98;;;;;;;1.26;100.00;103385.63;4977971;28;20035;-93
2024/01/27 00:13:59;;;;;;;2.85;1.90;;;;;;;1.26;100.00;103372.84;4979388;28;20026;-93
2024/01/27 00:16:24;;;;;;;4.13;2.00;;;;;;;1.22;100.00;103382.00;4978831;28;20172;-94
2024/01/27 00:18:50;;;;;;;1.50;1.40;;;;;;;1.33;100.00;103395.50;4976973;28;20138;-93
2024/01/27 00:21:15;;;;;;;2.40;1.60;;;;;;;1.34;100.00;103396.38;5000959;23;20048;-93
2024/01/27 00:23:41;;;;;;;3.38;1.80;;;;;;;1.33;100.00;103398.06;4941067;29;20027;-93
2024/01/27 00:26:06;;;;;;;2.17;1.60;;;;;;;1.30;100.00;103389.28;4940154;29;20020;-93
2024/01/27 00:28:31;;;;;;;2.05;1.60;;;;;;;1.29;100.00;103388.41;4939385;29;20023;-93
2024/01/27 00:30:57;;;;;;;3.42;1.70;;;;;;;1.31;100.00;103399.63;4941376;29;20419;-93
2024/01/27 00:33:22;;;;;;;4.55;1.88;;;;;;;1.29;100.00;103401.19;4940791;29;20046;-93
2024/01/27 00:35:47;;;;;;;2.20;1.60;;;;;;;1.28;100.00;103401.97;4956297;29;20065;-93
2024/01/27 00:38:13;;;;;;;3.05;1.65;;;;;;;1.27;100.00;103410.44;4958661;29;20032;-93
2024/01/27 00:40:38;;;;;;;2.72;1.63;;;;;;;1.26;100.00;103410.34;4960151;29;20023;-93
2024/01/27 00:43:03;;;;;;;2.65;1.70;;;;;;;1.25;100.00;103412.00;4960546;28;20055;-93
2024/01/27 00:45:30;;;;;;;3.25;1.90;;;;;;;1.25;100.00;103413.69;4961667;29;20058;-93
2024/01/27 00:47:56;;;;;;;2.28;1.80;;;;;;;1.19;100.00;103411.63;4958975;29;20086;-93
2024/01/27 00:50:21;;;;;;;3.80;1.90;;;;;;;1.21;100.00;103422.84;4959929;29;20031;-93
2024/01/27 00:52:46;;;;;;;2.05;1.65;;;;;;;1.18;100.00;103420.09;4960722;29;20476;-93
2024/01/27 00:55:11;;;;;;;3.85;1.80;;;;;;;1.19;100.00;103417.63;4960357;29;20471;-93
2024/01/27 00:57:38;;;;;;;3.40;1.90;;;;;;;1.15;100.00;103412.19;4958455;28;20023;-93
2024/01/27 01:00:06;;;;;;;3.13;1.80;;;;;;;1.19;100.00;103419.31;4959480;29;20028;-93
2024/01/27 01:02:31;;;;;;;2.60;1.80;;;;;;;1.14;100.00;103413.88;4960974;29;20031;-93
2024/01/27 01:04:57;;;;;;;3.75;2.00;;;;;;;1.13;100.00;103411.22;4960954;29;20113;-93
2024/01/27 01:07:22;;;;;;;2.47;1.90;;;;;;;1.12;100.00;103422.25;4960041;29;20065;-93
2024/01/27 01:10:04;;;;;;;3.17;2.03;;;;;;;1.00;100.00;103410.44;4959921;29;20027;-93
2024/01/27 01:12:29;;;;;;;3.42;1.90;;;;;;;0.94;100.00;103404.91;4961715;29;20082;-93
2024/01/27 01:15:13;;;;;;;4.55;2.13;;;;;;;1.05;100.00;103421.84;4961966;28;20019;-93
2024/01/27 01:17:38;;;;;;;4.80;2.40;;;;;;;0.94;100.00;103407.47;4963019;29;20096;-93
2024/01/27 01:20:12;;;;;;;3.35;2.03;;;;;;;0.89;100.00;103396.06;4962436;28;20067;-93
2024/01/27 01:22:37;;;;;;;3.25;2.10;;;;;;;0.91;100.00;103404.69;4961790;29;20027;-93
2024/01/27 01:25:12;;;;;;;4.03;2.17;;;;;;;0.93;100.00;103410.81;4962024;29;20030;-93
2024/01/27 01:27:37;;;;;;;4.30;2.30;;;;;;;0.88;100.00;103400.28;4960999;29;20042;-93
2024/01/27 01:30:09;;;;;;;4.05;2.42;;;;;;;0.89;100.00;103402.03;4961390;29;20023;-93
2024/01/27 01:32:35;;;;;;;3.35;2.22;;;;;;;0.80;100.00;103397.97;4960677;29;20031;-93
2024/01/27 01:35:16;;;;;;;3.42;2.25;;;;;;;0.77;100.00;103398.69;4961647;29;20035;-93
2024/01/27 01:37:41;;;;;;;2.58;1.90;;;;;;;0.83;100.00;103408.41;4960588;29;20035;-93
2024/01/27 01:40:28;;;;;;;4.15;2.20;;;;;;;0.92;100.00;103421.81;4961218;29;20023;-93
2024/01/27 01:42:53;;;;;;;4.55;2.30;;;;;;;0.92;100.00;103419.25;4962346;28;20031;-92
2024/01/27 01:45:35;;;;;;;3.00;2.20;;;;;;;0.86;100.00;103406.94;4962870;29;20033;-92
2024/01/27 01:48:19;;;;;;;5.60;2.58;;;;;;;0.81;100.00;103403.22;4964288;29;20055;-92
2024/01/27 01:51:04;;;;;;;4.80;2.30;;;;;;;0.86;100.00;103412.06;4966075;29;20059;-92
2024/01/27 01:53:48;;;;;;;4.03;2.50;;;;;;;0.77;100.00;103401.22;4969480;29;20023;-92
2024/01/27 01:56:16;;;;;;;6.43;2.70;;;;;;;0.85;100.00;103430.75;4974084;28;20020;-91
2024/01/27 01:59:01;;;;;;;6.22;2.60;;;;;;;0.85;100.00;103427.31;4948047;29;20373;-92
2024/01/27 02:01:42;;;;;;;5.00;2.80;;;;;;;0.70;100.00;103399.94;4943145;29;20016;-93
2024/01/27 02:04:09;;;;;;;5.30;2.63;;;;;;;0.79;100.00;103420.13;4939619;29;20032;-92
2024/01/27 02:06:54;;;;;;;4.57;2.53;;;;;;;0.68;100.00;103406.59;4938407;29;20099;-92
2024/01/27 02:09:19;;;;;;;4.07;2.42;;;;;;;0.81;100.00;103427.88;4937106;29;20047;-92
2024/01/27 02:11:45;;;;;;;4.40;2.63;;;;;;;0.71;100.00;103409.38;4933313;29;20036;-92
2024/01/27 02:14:10;;;;;;;5.35;2.50;;;;;;;0.79;100.00;103432.91;4945719;29;20023;-92
2024/01/27 02:16:39;;;;;;;5.13;2.60;;;;;;;0.64;100.00;103408.84;4956709;29;20615;-92
2024/01/27 02:19:04;;;;;;;5.28;2.58;;;;;;;0.61;100.00;103405.34;4957773;29;20032;-92
2024/01/27 02:21:41;;;;;;;4.03;2.30;;;;;;;0.64;100.00;103416.53;4956737;28;20066;-92
2024/01/27 02:24:20;;;;;;;4.68;2.47;;;;;;;0.66;100.00;103431.22;4957237;29;20050;-92
2024/01/27 02:26:57;;;;;;;4.60;2.45;;;;;;;0.59;100.00;103416.22;4956790;29;20027;-92
2024/01/27 02:29:23;;;;;;;2.95;2.17;;;;;;;0.53;100.00;103408.16;4957343;29;20031;-92
2024/01/27 02:31:56;;;;;;;4.10;2.33;;;;;;;0.53;100.00;103410.72;4957483;29;20054;-93
2024/01/27 02:34:27;;;;;;;4.47;2.42;;;;;;;0.63;100.00;103433.53;4956433;29;20046;-92
2024/01/27 02:36:52;;;;;;;4.38;2.35;;;;;;;0.52;100.00;103414.03;4957349;29;20078;-92
2024/01/27 02:39:36;;;;;;;4.22;2.33;;;;;;;0.62;100.00;103436.88;4957215;29;20086;-93
2024/01/27 02:42:01;;;;;;;5.07;2.42;;;;;;;0.50;100.00;103407.94;4957072;29;20390;-92
2024/01/27 02:44:42;;;;;;;5.93;2.50;;;;;;;0.46;100.00;103417.06;4956406;29;20113;-93
2024/01/27 02:47:16;;;;;;;4.55;2.45;;;;;;;0.52;100.00;103431.94;4956357;29;20423;-92
2024/01/27 02:49:42;;;;;;;5.03;2.47;;;;;;;0.54;100.00;103428.69;4955875;29;20034;-92
2024/01/27 02:52:19;;;;;;;4.20;2.67;;;;;;;0.41;100.00;103410.75;4955831;29;20020;-92
2024/01/27 02:54:45;;;;;;;3.70;2.53;;;;;;;0.38;100.00;103406.31;4956316;29;20027;-92
2024/01/27 02:57:11;;;;;;;3.67;2.70;;;;;;;0.35;100.00;103397.56;4956153;29;20031;-92
2024/01/27 02:59:41;;;;;;;4.90;2.50;;;;;;;0.39;100.00;103409.78;4955600;29;20019;-93
2024/01/27 03:02:21;;;;;;;3.95;2.50;;;;;;;0.37;100.00;103422.44;4956342;29;20047;-92
2024/01/27 03:04:47;;;;;;;2.90;2.30;;;;;;;0.42;100.00;103421.09;4956509;29;20047;-93
2024/01/27 03:07:12;;;;;;;4.20;2.55;;;;;;;0.34;100.00;103406.00;4955557;29;20086;-93
2024/01/27 03:09:44;;;;;;;4.85;2.78;;;;;;;0.42;100.00;103436.44;4955945;28;20154;-92
2024/01/27 03:12:10;;;;;;;5.35;2.45;;;;;;;0.33;100.00;103409.34;4952864;29;20031;-92
2024/01/27 03:14:46;;;;;;;3.88;2.60;;;;;;;0.34;100.00;103414.56;4956010;29;20110;-92
2024/01/27 03:17:11;;;;;;;3.88;2.30;;;;;;;0.35;100.00;103420.56;4955442;29;20023;-92
2024/01/27 03:20:14;;;;;;;4.57;2.60;;;;;;;0.48;100.00;103443.63;4955592;28;20049;-92
2024/01/27 03:22:41;;;;;;;3.35;2.30;;;;;;;0.48;100.00;103435.06;4959122;29;20043;-92
2024/01/27 03:25:07;;;;;;;4.38;2.40;;;;;;;0.41;100.00;103434.66;4958585;29;20051;-92
2024/01/27 03:27:32;;;;;;;4.73;2.30;;;;;;;0.44;100.00;103431.41;4958379;29;20061;-90
2024/01/27 03:30:03;;;;;;;4.03;2.30;;;;;;;0.43;100.00;103443.31;4958939;29;20031;-92
2024/01/27 03:32:28;;;;;;;4.28;2.30;;;;;;;0.43;100.00;103443.31;4958786;29;20027;-92
2024/01/27 03:34:54;;;;;;;3.53;2.30;;;;;;;0.39;100.00;103440.44;4958872;29;20023;-92
2024/01/27 03:37:22;;;;;;;5.72;2.55;;;;;;;0.44;100.00;103439.06;4958155;29;20043;-92
2024/01/27 03:39:47;;;;;;;3.78;2.28;;;;;;;0.41;100.00;103443.97;4958941;29;20043;-92
2024/01/27 03:42:14;;;;;;;3.15;2.42;;;;;;;0.38;100.00;103433.56;4958997;29;20374;-92
2024/01/27 03:44:39;;;;;;;4.30;2.45;;;;;;;0.31;100.00;103422.03;4958322;29;20158;-93
2024/01/27 03:47:24;;;;;;;3.55;2.30;;;;;;;0.39;100.00;103443.88;4958338;29;20067;-92
2024/01/27 03:50:07;;;;;;;3.88;2.30;;;;;;;0.30;100.00;103425.34;4958522;29;20077;-92
2024/01/27 03:52:33;;;;;;;3.30;2.30;;;;;;;0.29;100.00;103421.91;4959282;29;20066;-92
2024/01/27 03:54:59;;;;;;;4.15;2.40;;;;;;;0.25;100.00;103409.72;4958668;29;20494;-92
2024/01/27 03:57:39;;;;;;;5.75;2.72;;;;;;;0.28;100.00;103427.78;4957885;29;20027;-92
2024/01/27 04:00:05;;;;;;;4.82;2.70;;;;;;;0.37;100.00;103442.88;5063674;23;20046;-92
2024/01/27 04:02:30;;;;;;;5.30;2.80;;;;;;;0.36;100.00;103440.22;4977567;28;20180;-93
2024/01/27 04:04:55;;;;;;;5.00;2.70;;;;;;;0.31;100.00;103437.34;4977002;28;20427;-92
2024/01/27 04:07:21;;;;;;;4.68;2.20;;;;;;;0.32;100.00;103448.44;4976747;28;20113;-92
2024/01/27 04:09:46;;;;;;;4.85;2.72;;;;;;;0.26;100.00;103442.16;4977268;28;20034;-92
2024/01/27 04:12:11;;;;;;;4.78;2.60;;;;;;;0.30;100.00;103443.25;4976887;28;20049;-92
2024/01/27 04:14:37;;;;;;;3.30;2.60;;;;;;;0.30;100.00;103456.00;4977186;28;20023;-92
2024/01/27 04:17:02;;;;;;;5.95;2.75;;;;;;;0.29;100.00;103465.31;4976335;28;20073;-92
2024/01/27 04:19:27;;;;;;;4.93;2.72;;;;;;;0.27;100.00;103456.69;4976376;28;20095;-92
2024/01/27 04:21:53;;;;;;;4.05;2.33;;;;;;;0.23;100.00;103451.25;4977451;28;20076;-92
2024/01/27 04:24:18;;;;;;;3.30;2.40;;;;;;;0.25;100.00;103448.03;4976744;28;20119;-92
2024/01/27 04:26:43;;;;;;;6.25;2.50;;;;;;;0.25;100.00;103444.56;4976554;28;20019;-92
2024/01/27 04:29:09;;;;;;;3.08;2.22;;;;;;;0.22;100.00;103445.25;4976415;28;20019;-92
2024/01/27 04:31:43;;;;;;;3.53;2.33;;;;;;;0.11;100.00;103429.19;4926213;28;20058;-92
2024/01/27 04:34:08;;;;;;;4.13;2.60;;;;;;;0.17;100.00;103432.94;4975763;28;20050;-92
2024/01/27 04:36:34;;;;;;;3.85;2.50;;;;;;;0.21;100.00;103450.28;4976466;28;20117;-92
2024/01/27 04:38:59;;;;;;;2.88;2.30;;;;;;;0.05;100.00;103421.09;4976993;28;20043;-92
2024/01/27 04:41:45;;;;;;;4.10;2.30;;;;;;;0.22;100.00;103454.59;4977016;28;20103;-93
2024/01/27 04:44:11;;;;;;;4.43;2.40;;;;;;;0.10;100.00;103432.53;4976328;28;20030;-93
2024/01/27 04:46:56;;;;;;;8.30;2.90;;;;;;;0.22;100.00;103464.81;4976610;28;20105;-93
2024/01/27 04:49:34;;;;;;;7.07;3.13;;;;;;;0.13;100.00;103452.28;4976842;28;20105;-93
2024/01/27 04:51:59;;;;;;;4.75;3.00;;;;;;;0.08;100.00;103440.84;4977085;28;20382;-93
2024/01/27 04:54:25;;;;;;;10.02;3.15;;;;;;;0.03;100.00;103437.97;4976585;28;20027;-93
2024/01/27 04:57:28;;;;;;;4.65;3.00;;;;;;;0.18;100.00;103452.59;4976346;28;20037;-93
2024/01/27 04:59:53;;;;;;;5.03;2.70;;;;;;;0.14;100.00;103448.97;4976368;28;20050;-93
2024/01/27 05:02:19;;;;;;;4.63;2.75;;;;;;;0.14;100.00;103456.63;4976232;28;20173;-93
2024/01/27 05:04:44;;;;;;;4.72;2.70;;;;;;;0.10;100.00;103450.41;4976007;28;20034;-93
2024/01/27 05:07:09;;;;;;;4.43;2.78;;;;;;;0.11;100.00;103448.72;4976573;28;20457;-93
2024/01/27 05:10:26;;;;;;;3.95;2.70;;;;;;;0.13;100.00;103460.81;4976560;28;20023;-93
2024/01/27 05:12:51;;;;;;;6.68;2.90;;;;;;;0.10;100.00;103450.41;4976964;28;20035;-93
2024/01/27 05:15:16;;;;;;;5.07;2.85;;;;;;;0.10;100.00;103452.97;4975982;28;20026;-93
2024/01/27 05:17:42;;;;;;;4.22;2.90;;;;;;;0.10;100.00;103455.53;4976608;28;20069;-93
2024/01/27 05:20:07;;;;;;;3.95;2.70;;;;;;;0.11;100.00;103462.38;4977392;28;20055;-92
2024/01/27 05:22:33;;;;;;;3.90;2.50;;;;;;;0.04;100.00;103455.06;4976595;28;20033;-93
2024/01/27 05:24:58;;;;;;;5.43;2.80;;;;;;;0.07;100.00;103454.41;4976381;28;20050;-92
2024/01/27 05:27:23;;;;;;;4.05;2.60;;;;;;;0.06;100.00;103453.53;4983230;23;20051;-93
2024/01/27 05:29:49;;;;;;;3.22;2.40;;;;;;;0.01;100.00;103452.28;4977077;28;20128;-92
2024/01/27 05:32:14;;;;;;;4.13;2.60;;;;;;;0.05;100.00;103449.19;4976292;28;20193;-93
2024/01/27 05:34:40;;;;;;;3.22;2.60;;;;;;;0.02;100.00;103454.06;4976667;28;20498;-93
2024/01/27 05:37:05;;;;;;;4.38;2.50;;;;;;;0.02;100.00;103454.06;4976459;28;20053;-93
2024/01/27 05:39:32;;;;;;;3.78;2.42;;;;;;;-0.01;100.00;103443.66;4977616;28;20033;-93
2024/01/27 05:41:57;;;;;;;4.00;2.50;;;;;;;0.02;100.00;103440.44;4977028;28;20025;-93
2024/01/27 05:44:22;;;;;;;4.55;2.67;;;;;;;-0.04;100.00;103439.22;4976260;28;20113;-93
2024/01/27 05:46:48;;;;;;;3.67;2.67;;;;;;;-0.05;100.00;103432.31;4978188;28;20423;-92
2024/01/27 05:49:14;;;;;;;4.85;2.90;;;;;;;-0.06;100.00;103433.13;4976911;28;20460;-93
2024/01/27 05:51:39;;;;;;;6.53;3.50;;;;;;;-0.06;100.00;103433.13;4976803;28;20034;-92
2024/01/27 05:54:04;;;;;;;7.45;3.28;;;;;;;-0.05;100.00;103434.88;4977334;28;20062;-92
2024/01/27 05:56:30;;;;;;;5.90;3.10;;;;;;;-0.07;100.00;103431.34;4976491;28;20117;-92
2024/01/27 05:58:55;;;;;;;6.22;3.10;;;;;;;-0.10;100.00;103433.69;4977334;28;20051;-93
2024/01/27 06:04:04;;;;;;;4.57;2.70;;;;;;;-0.14;100.00;103433.38;4977622;28;20050;-93
2024/01/27 06:06:45;;;;;;;4.30;2.83;;;;;;;-0.09;100.00;103439.66;4979794;28;20038;-92
2024/01/27 06:09:22;;;;;;;4.40;2.60;;;;;;;-0.24;100.00;103412.31;4982044;28;20027;-92
2024/01/27 06:12:03;;;;;;;4.68;2.45;;;;;;;-0.15;100.00;103435.00;4982451;28;20579;-93
2024/01/27 06:14:28;;;;;;;4.03;2.50;;;;;;;-0.23;100.00;103418.28;4986541;28;20074;-92
2024/01/27 06:16:55;;;;;;;4.63;2.72;;;;;;;-0.29;100.00;103403.41;4992622;28;20014;-92
2024/01/27 06:19:27;;;;;;;5.90;2.80;;;;;;;-0.20;100.00;103423.59;4990781;28;20035;-92
2024/01/27 06:21:53;;;;;;;5.57;3.17;;;;;;;-0.25;100.00;103415.63;4980267;28;20058;-92
2024/01/27 06:24:20;;;;;;;5.60;3.13;;;;;;;-0.25;100.00;103420.72;4980254;28;20092;-92
2024/01/27 06:27:12;;;;;;;5.28;2.95;;;;;;;-0.17;100.00;103439.16;4974834;28;20105;-93
2024/01/27 06:29:56;;;;;;;4.32;2.72;;;;;;;-0.19;100.00;103438.16;4974749;28;20031;-92
2024/01/27 06:32:30;;;;;;;5.60;3.13;;;;;;;-0.19;100.00;103443.25;4974609;28;20035;-92
2024/01/27 06:35:08;;;;;;;5.00;2.60;;;;;;;-0.19;100.00;103448.34;4974422;28;20018;-92
2024/01/27 06:37:33;;;;;;;4.68;2.90;;;;;;;-0.20;100.00;103442.34;4974486;28;20027;-92
2024/01/27 06:39:59;;;;;;;6.03;2.97;;;;;;;-0.27;100.00;103427.38;4974170;28;20591;-93
2024/01/27 06:45:40;;;;;;;6.13;2.90;;;;;;;-0.22;100.00;103441.34;4975138;28;20078;-93
2024/01/27 06:48:25;;;;;;;7.28;3.10;;;;;;;-0.30;100.00;103434.81;4974315;28;20435;-92
2024/01/27 06:50:50;;;;;;;5.68;3.40;;;;;;;-0.35;100.00;103428.53;4974365;28;20023;-93
2024/01/27 06:53:34;;;;;;;5.65;3.00;;;;;;;-0.33;100.00;103429.47;4973700;28;20386;-93
2024/01/27 06:55:59;;;;;;;6.88;3.10;;;;;;;-0.25;100.00;103456.47;4975974;28;20105;-92
2024/01/27 06:58:40;;;;;;;4.70;3.08;;;;;;;-0.36;100.00;103450.56;4979025;28;20019;-93
2024/01/27 07:01:07;;;;;;;5.90;3.17;;;;;;;-0.44;100.00;103446.59;4978356;28;20023;-93
2024/01/27 07:03:32;;;;;;;;;;;;;;;-0.29;100.00;103474.88;4978634;28;20030;-93
2024/01/27 07:06:00;;;;;;;6.23;3.30;;;;;;;-0.42;100.00;103462.91;4979405;28;19997;-92
2024/01/27 07:08:41;;;;;;;8.43;3.75;;;;;;;-0.44;100.00;103459.34;4978187;28;20118;-93
2024/01/27 07:11:19;;;;;;;8.55;3.70;;;;;;;-0.48;100.00;103457.34;4978355;28;20115;-93
2024/01/27 07:13:45;;;;;;;6.60;3.22;;;;;;;-0.36;100.00;103486.31;4978430;28;20106;-93
2024/01/27 07:16:12;;;;;;;5.63;3.22;;;;;;;-0.38;100.00;103490.41;4978947;28;20106;-93
2024/01/27 07:18:40;;;;;;;6.30;3.20;;;;;;;-0.41;100.00;103474.91;4979325;28;20023;-93
2024/01/27 07:21:05;;;;;;;6.90;3.60;;;;;;;-0.40;100.00;103478.31;4977620;28;20023;-89
2024/01/27 07:23:31;;;;;;;8.02;3.90;;;;;;;-0.36;100.00;103480.31;4979459;28;20538;-94
2024/01/27 07:26:09;;;;;;;9.00;3.80;;;;;;;-0.35;100.00;103488.09;4977768;28;20081;-94
2024/01/27 07:28:35;;;;;;;7.45;3.50;;;;;;;-0.34;100.00;103487.31;4958656;29;20031;-87
2024/01/27 07:31:00;;;;;;;9.85;4.13;;;;;;;-0.37;100.00;103476.00;4963432;28;20031;-93
2024/01/27 07:33:25;;;;;;;7.50;3.80;;;;;;;-0.33;100.00;103493.28;4977842;28;20027;-93
2024/01/27 07:35:51;;;;;;;5.22;3.15;;;;;;;-0.32;100.00;103493.41;4977789;28;20095;-93
2024/01/27 07:38:16;;;;;;;6.82;3.63;;;;;;;-0.33;100.00;103496.75;4977542;28;20022;-93
2024/01/27 07:40:41;;;;;;;8.10;3.60;;;;;;;-0.34;100.00;103486.44;4977814;28;20077;-92
2024/01/27 07:43:07;;;;;;;7.38;3.40;;;;;;;-0.36;100.00;103490.53;4977385;28;20055;-92
2024/01/27 07:45:32;;;;;;;10.07;4.03;;;;;;;-0.33;100.00;103493.28;4976484;28;20513;-93
2024/01/27 07:48:04;;;;;;;9.70;3.70;;;;;;;-0.39;100.00;103480.09;4977530;28;20031;-92
2024/01/27 07:50:29;;;;;;;8.38;3.90;;;;;;;-0.38;100.00;103479.31;4974844;28;20029;-93
2024/01/27 07:53:01;;;;;;;8.20;3.63;;;;;;;-0.30;100.00;103495.19;4958147;28;20102;-92
2024/01/27 07:55:34;;;;;;;9.52;4.00;;;;;;;-0.23;100.00;103511.06;4958022;29;20027;-92
2024/01/27 07:58:00;;;;;;;7.65;3.65;;;;;;;-0.30;100.00;103496.06;4957676;29;20058;-92
2024/01/27 08:00:25;;;;;;;9.02;3.83;;;;;;;-0.22;100.00;103505.16;4957892;29;20016;-92
2024/01/27 08:03:11;;;;;;;9.35;3.80;;;;;;;-0.17;100.00;103508.94;4957003;29;20170;-92
2024/01/27 08:05:57;;;;;;;10.33;4.13;;;;;;;-0.25;100.00;103491.28;4958172;29;20027;-93
2024/01/27 08:08:22;;;;;;;9.45;4.15;;;;;;;-0.30;100.00;103482.44;4957086;28;20039;-92
2024/01/27 08:10:48;;;;;;;7.60;3.75;;;;;;;-0.14;100.00;103502.28;4957298;29;20042;-93
2024/01/27 08:13:13;;;;;;;8.55;4.13;;;;;;;-0.14;100.00;103498.06;4939733;29;20031;-87
2024/01/27 08:15:38;;;;;;;6.55;3.70;;;;;;;-0.11;100.00;103494.84;4957577;28;20124;-92
2024/01/27 08:18:04;;;;;;;9.02;3.72;;;;;;;-0.10;100.00;103494.97;4957607;29;20030;-91
2024/01/27 08:20:29;;;;;;;5.00;3.38;;;;;;;-0.09;100.00;103496.72;4958469;29;20027;-90
2024/01/27 08:22:54;;;;;;;6.65;3.70;;;;;;;-0.14;100.00;103484.41;4958690;29;20071;-93
2024/01/27 08:25:20;;;;;;;6.75;3.50;;;;;;;-0.07;100.00;103489.19;4957346;29;20102;-92
2024/01/27 08:28:10;;;;;;;6.85;3.55;;;;;;;0.03;100.00;103499.25;4970206;28;20410;-91
2024/01/27 08:30:35;;;;;;;7.15;3.42;;;;;;;-0.07;100.00;103469.66;4976806;28;20066;-90
2024/01/27 08:33:15;;;;;;;8.45;3.28;;;;;;;0.09;100.00;103484.38;4977261;28;20026;-93
2024/01/27 08:35:41;;;;;;;7.57;3.10;;;;;;;0.13;100.00;103483.81;4976940;28;20031;-93
2024/01/27 08:38:15;;;;;;;6.78;3.20;;;;;;;0.03;100.00;103466.06;4978643;28;20027;-93
2024/01/27 08:40:41;;;;;;;10.38;4.05;;;;;;;0.24;100.00;103492.22;4976289;28;20031;-93
2024/01/27 08:43:06;;;;;;;8.40;4.35;;;;;;;0.13;100.00;103471.03;4976277;28;20034;-93
2024/01/27 08:45:32;;;;;;;10.50;4.38;;;;;;;0.19;100.00;103470.56;4976165;28;20126;-93
2024/01/27 08:48:31;;;;;;;10.90;4.35;;;;;;;0.40;100.00;103498.41;4975952;28;20019;-93
2024/01/27 08:50:56;;;;;;;10.93;4.18;;;;;;;0.45;100.00;103494.50;4976681;28;20027;-93
2024/01/27 08:53:22;;;;;;;10.15;4.45;;;;;;;0.54;100.00;103496.81;4976290;28;20066;-93
2024/01/27 08:55:47;;;;;;;11.23;4.60;;;;;;;0.61;100.00;103509.22;4976416;28;20033;-93
2024/01/27 08:58:13;;;;;;;11.52;4.90;;;;;;;0.69;100.00;103510.63;5033201;23;20519;-93
2024/01/27 09:00:38;;;;;;;10.98;4.55;;;;;;;0.76;100.00;103509.38;4937558;29;20024;-93
2024/01/27 09:03:03;;;;;;;10.15;4.10;;;;;;;0.85;100.00;103512.56;4938249;29;20126;-93
2024/01/27 09:05:29;;;;;;;9.23;4.65;;;;;;;0.94;100.00;103514.88;4937407;29;20032;-94
2024/01/27 09:07:54;;;;;;;11.27;4.70;;;;;;;1.02;100.00;103512.81;4936972;29;20126;-90
2024/01/27 09:10:20;;;;;;;11.93;4.53;;;;;;;1.10;100.00;103516.78;4939193;29;20366;-93
2024/01/27 09:12:45;;;;;;;11.65;4.50;;;;;;;1.18;100.00;103517.28;4957000;29;20027;-93
2024/01/27 09:15:11;;;;;;;9.98;4.47;;;;;;;1.26;100.00;103518.69;4956780;28;20042;-92
2024/01/27 09:17:36;;;;;;;9.00;4.03;;;;;;;1.35;100.00;103521.84;4928803;29;20110;-92
2024/01/27 09:20:02;;;;;;;9.05;4.10;;;;;;;1.44;100.00;103520.69;4936704;29;20063;-90
2024/01/27 09:22:28;;;;;;;7.67;3.93;;;;;;;1.56;100.00;103530.84;4938756;29;20020;-92
2024/01/27 09:24:53;;;;;;;7.47;3.65;;;;;;;1.65;100.00;103531.44;4939032;29;20103;-91
2024/01/27 09:27:18;;;;;;;9.13;3.67;;;;;;;1.76;100.00;103539.81;4936712;29;20023;-92
2024/01/27 09:29:44;;;;;;;6.35;3.30;;;;;;;1.81;100.00;103529.09;4937275;29;20023;-93
2024/01/27 09:32:09;;;;;;;10.35;3.70;;;;;;;1.90;100.00;103533.03;4937181;29;20028;-91
2024/01/27 09:34:34;;;;;;;9.35;3.60;;;;;;;2.02;100.00;103543.19;4936899;29;20078;-93
2024/01/27 09:37:01;;;;;;;6.85;3.47;;;;;;;2.09;100.00;103547.88;4936932;29;20086;-93
2024/01/27 09:39:26;;;;;;;9.82;4.00;;;;;;;2.18;100.00;103552.72;4937152;29;20050;-93
2024/01/27 09:41:54;;;;;;;9.40;3.58;;;;;;;2.29;100.00;103562.84;4937165;29;20464;-92
2024/01/27 09:44:28;;;;;;;9.25;3.80;;;;;;;2.41;100.00;103560.19;4934822;29;20416;-94
2024/01/27 09:46:54;;;;;;;10.30;3.53;;;;;;;2.41;100.00;103559.28;4941709;29;20054;-94
2024/01/27 09:49:37;;;;;;;8.65;3.88;;;;;;;2.42;100.00;103549.09;4956397;29;20035;-94
2024/01/27 09:52:03;;;;;;;8.25;3.80;;;;;;;2.42;100.00;103546.53;4975224;28;20035;-81
2024/01/27 09:54:28;;;;;;;8.55;3.42;;;;;;;2.48;100.00;103553.72;4954343;29;20049;-89
2024/01/27 10:00:00;;;;;;;6.80;2.95;;;;;;;2.44;100.00;103544.09;4953821;29;20063;-84
2024/01/27 10:05:12;;;;;;;5.53;2.92;;;;;;;2.68;100.00;103551.53;4915294;29;20404;-85
2024/01/27 10:07:56;;;;;;;5.45;2.90;;;;;;;2.90;100.00;103564.84;4954641;28;20035;-84
2024/01/27 10:10:21;;;;;;;7.50;3.55;;;;;;;2.97;100.00;103557.50;4952978;29;20099;-83
2024/01/27 10:13:04;;;;;;;10.73;3.80;;;;;;;3.05;100.00;103553.72;4955191;29;20031;-84
2024/01/27 10:15:58;;;;;;;8.20;3.60;;;;;;;3.06;100.00;103538.44;4954567;29;20027;-84
2024/01/27 10:18:30;;;;;;;10.02;3.80;;;;;;;3.21;100.00;103556.41;4955724;29;20038;-84
2024/01/27 10:21:15;;;;;;;7.32;3.50;;;;;;;3.42;100.00;103571.28;4956568;29;20034;-85
2024/01/27 10:24:05;;;;;;;9.35;3.22;;;;;;;3.55;100.00;103584.06;4955723;29;20551;-84
2024/01/27 10:26:32;;;;;;;8.10;3.53;;;;;;;3.50;100.00;103554.63;4957506;29;20035;-84
2024/01/27 10:29:06;;;;;;;5.72;3.08;;;;;;;3.65;100.00;103559.81;4957852;29;20023;-84
2024/01/27 10:31:56;;;;;;;5.78;2.83;;;;;;;3.64;100.00;103537.47;4961573;28;20031;-85
2024/01/27 10:34:40;;;;;;;5.65;2.97;;;;;;;3.81;100.00;103545.25;4967141;29;20561;-84
2024/01/27 10:37:05;;;;;;;5.97;3.00;;;;;;;4.06;100.00;103573.19;4964979;29;20554;-84
2024/01/27 10:39:47;;;;;;;5.67;2.97;;;;;;;4.13;100.00;103571.84;4959108;29;20032;-84
2024/01/27 10:42:12;;;;;;;8.35;3.10;;;;;;;4.23;100.00;103578.38;4957968;29;20172;-84
2024/01/27 10:44:51;;;;;;;8.47;3.20;;;;;;;4.28;100.00;103564.97;4956520;29;20127;-84
2024/01/27 10:47:32;;;;;;;6.53;3.15;;;;;;;4.36;100.00;103549.97;4957819;28;20157;-84
2024/01/27 10:50:18;;;;;;;7.20;3.10;;;;;;;4.66;100.00;103573.00;4957885;29;20019;-85
2024/01/27 10:53:05;;;;;;;6.20;2.90;;;;;;;4.63;100.00;103553.16;4956244;29;20059;-84
2024/01/27 10:55:52;;;;;;;6.00;2.95;;;;;;;4.83;100.00;103562.72;4956962;29;20385;-84
2024/01/27 10:58:31;;;;;;;5.05;2.50;;;;;;;4.81;100.00;103536.88;4956353;28;20484;-84
2024/01/27 11:01:04;;;;;;;4.25;2.40;;;;;;;5.03;100.00;103545.72;4957030;29;20510;-85
2024/01/27 11:09:31;;;;;;;6.60;3.10;;;;;;;5.34;100.00;103553.31;4951810;23;20095;-87
2024/01/27 11:12:47;;;;;;;12.80;4.22;;;;;;;5.45;100.00;103550.38;4934373;29;20047;-87
2024/01/27 11:19:00;;;;;;;8.00;3.55;;;;;;;5.63;100.00;103542.69;5030140;23;20086;-86
2024/01/27 11:22:21;;;;;;;12.23;3.70;;;;;;;5.75;100.00;103548.44;4956488;28;20539;-86
2024/01/27 11:24:47;;;;;;;11.75;4.18;;;;;;;5.69;100.00;103532.66;4956892;29;20083;-86
2024/01/27 11:27:30;;;;;;;8.27;3.70;;;;;;;5.75;100.00;103526.91;4956255;29;20113;-86
2024/01/27 11:30:45;;;;;;;11.05;4.00;;;;;;;5.82;100.00;103516.09;5066928;23;20133;-87
2024/01/27 11:33:25;;;;;;;8.82;3.50;;;;;;;5.90;100.00;103519.91;4956622;29;20028;-86
2024/01/27 11:36:04;;;;;;;9.85;3.72;;;;;;;5.99;98.25;103537.53;4979208;23;20055;-87
2024/01/27 11:42:50;;;;;;;8.27;3.30;;;;;;;6.16;99.84;103538.34;4916483;29;20055;-93
2024/01/27 11:52:49;;;;;;;7.63;3.20;;;;;;;6.41;97.90;103530.03;4899475;29;20045;-92
2024/01/27 11:56:18;;;;;;;7.85;3.25;;;;;;;6.46;96.81;103517.34;4899543;29;20041;-93
2024/01/27 12:02:38;;;;;;;8.60;3.38;;;;;;;6.45;96.85;103501.00;4806605;29;20516;-93
2024/01/27 12:05:05;;;;;;;6.70;3.42;;;;;;;6.47;94.89;103494.19;4829087;29;20078;-92
2024/01/27 12:07:43;;;;;;;6.80;3.00;;;;;;;6.52;96.77;103486.66;4841168;29;20042;-87
2024/01/27 12:10:09;;;;;;;6.13;2.85;;;;;;;6.56;98.12;103488.56;4840550;29;20125;-86
2024/01/27 12:12:35;;;;;;;5.07;2.58;;;;;;;6.69;96.02;103500.31;4854743;29;20128;-84
2024/01/27 12:15:02;;;;;;;5.73;2.80;;;;;;;6.77;95.37;103498.94;4908639;29;20540;-93
2024/01/27 12:17:32;;;;;;;6.57;2.90;;;;;;;6.74;94.73;103492.78;4900589;29;20063;-90
2024/01/27 12:20:39;;;;;;;;;;;;;;;;;;;;;